createdAt,value
2023-05-07T00:02:16.903Z,11.21
2023-05-07T00:05:04.564Z,11.38
2023-05-07T00:07:51.421Z,11.36
2023-05-07T00:10:38.314Z,11.42
2023-05-07T00:13:25.237Z,11.34
2023-05-07T00:16:13.255Z,11.34
2023-05-07T00:19:00.025Z,11.41
2023-05-07T00:21:46.841Z,11.50
2023-05-07T00:24:34.834Z,11.45
2023-05-07T00:27:21.203Z,11.39
2023-05-07T00:30:09.449Z,11.44
2023-05-07T00:32:57.926Z,11.37
2023-05-07T00:35:44.582Z,11.34
2023-05-07T00:38:31.408Z,11.42
2023-05-07T00:41:18.116Z,11.40
2023-05-07T00:44:05.291Z,11.36
2023-05-07T00:46:52.373Z,11.38
2023-05-07T00:49:43.640Z,11.33
2023-05-07T00:52:31.322Z,11.33
2023-05-07T00:55:18.269Z,11.46
2023-05-07T00:58:04.985Z,11.36
2023-05-07T01:00:51.868Z,11.44
2023-05-07T01:03:38.672Z,11.35
2023-05-07T01:06:28.905Z,11.44
2023-05-07T01:09:16.299Z,11.46
2023-05-07T01:12:03.378Z,11.38
2023-05-07T01:14:51.641Z,11.19
2023-05-07T01:17:39.973Z,11.23
2023-05-07T01:20:30.781Z,11.25
2023-05-07T01:23:20.188Z,11.33
2023-05-07T01:26:06.899Z,11.49
2023-05-07T01:28:55.012Z,11.31
2023-05-07T01:31:44.023Z,11.01
2023-05-07T01:34:34.786Z,11.23
2023-05-07T01:37:41.432Z,11.15
2023-05-07T01:40:33.165Z,11.21
2023-05-07T01:43:20.127Z,11.28
2023-05-07T01:46:08.028Z,11.19
2023-05-07T01:48:58.813Z,11.27
2023-05-07T01:51:45.895Z,11.52
2023-05-07T01:54:32.944Z,11.00
2023-05-07T01:57:22.490Z,10.74
2023-05-07T02:00:10.956Z,10.96
2023-05-07T02:03:04.363Z,10.72
2023-05-07T02:05:59.867Z,10.82
2023-05-07T02:08:53.826Z,10.99
2023-05-07T02:11:40.809Z,11.04
2023-05-07T02:14:29.699Z,10.86
2023-05-07T02:17:16.923Z,10.79
2023-05-07T02:20:04.920Z,11.04
2023-05-07T02:22:51.694Z,10.92
2023-05-07T02:25:38.376Z,10.82
2023-05-07T02:28:25.115Z,10.80
2023-05-07T02:31:20.455Z,10.75
2023-05-07T02:34:07.319Z,10.97
2023-05-07T02:36:54.135Z,11.02
2023-05-07T02:39:44.439Z,11.10
2023-05-07T02:42:31.094Z,11.10
2023-05-07T02:45:17.801Z,11.20
2023-05-07T02:48:08.262Z,11.18
2023-05-07T02:50:55.341Z,11.19
2023-05-07T02:53:42.807Z,11.10
2023-05-07T02:56:29.687Z,11.01
2023-05-07T02:59:16.646Z,10.98
2023-05-07T03:02:03.391Z,10.67
2023-05-07T03:04:51.531Z,10.55
2023-05-07T03:07:38.652Z,10.76
2023-05-07T03:10:25.694Z,11.02
2023-05-07T03:13:12.549Z,10.89
2023-05-07T03:15:59.993Z,10.84
2023-05-07T03:18:46.837Z,10.93
2023-05-07T03:21:35.463Z,10.87
2023-05-07T03:24:22.192Z,10.81
2023-05-07T03:27:09.059Z,10.86
2023-05-07T03:29:56.317Z,10.84
2023-05-07T03:32:43.160Z,10.93
2023-05-07T03:35:32.531Z,10.80
2023-05-07T03:38:21.259Z,10.95
2023-05-07T03:41:07.827Z,10.99
2023-05-07T03:43:54.547Z,10.93
2023-05-07T03:46:41.475Z,10.80
2023-05-07T03:49:30.834Z,10.96
2023-05-07T03:52:17.614Z,10.93
2023-05-07T03:55:06.932Z,10.66
2023-05-07T03:57:54.970Z,10.79
2023-05-07T04:00:42.014Z,10.80
2023-05-07T04:03:43.493Z,10.67
2023-05-07T04:06:30.257Z,10.91
2023-05-07T04:09:17.033Z,10.88
2023-05-07T04:12:07.117Z,11.00
2023-05-07T04:14:55.188Z,10.83
2023-05-07T04:17:44.567Z,10.72
2023-05-07T04:20:37.405Z,10.83
2023-05-07T04:23:26.266Z,10.95
2023-05-07T04:26:14.011Z,10.73
2023-05-07T04:29:04.813Z,10.78
2023-05-07T04:31:54.373Z,10.97
2023-05-07T04:34:40.986Z,11.07
2023-05-07T04:37:28.329Z,11.14
2023-05-07T04:40:15.285Z,11.02
2023-05-07T04:43:02.767Z,11.11
2023-05-07T04:45:54.028Z,11.08
2023-05-07T04:48:44.026Z,11.28
2023-05-07T04:51:31.456Z,11.13
2023-05-07T04:54:18.236Z,10.97
2023-05-07T04:57:05.801Z,11.02
2023-05-07T04:59:52.996Z,11.17
2023-05-07T05:02:41.318Z,11.11
2023-05-07T05:05:28.407Z,11.14
2023-05-07T05:08:15.718Z,11.22
2023-05-07T05:11:03.332Z,11.18
2023-05-07T05:13:51.791Z,11.13
2023-05-07T05:16:41.336Z,10.99
2023-05-07T05:19:29.807Z,11.27
2023-05-07T05:22:16.893Z,11.36
2023-05-07T05:25:03.769Z,11.90
2023-05-07T05:27:50.391Z,12.08
2023-05-07T05:30:37.493Z,11.95
2023-05-07T05:33:24.073Z,11.97
2023-05-07T05:36:14.190Z,11.96
2023-05-07T05:39:01.560Z,12.10
2023-05-07T05:41:48.900Z,13.54
2023-05-07T05:44:36.208Z,15.09
2023-05-07T05:47:22.925Z,15.22
2023-05-07T05:50:10.532Z,15.24
2023-05-07T05:53:00.507Z,14.64
2023-05-07T05:55:48.630Z,14.88
2023-05-07T05:58:35.183Z,14.80
2023-05-07T06:01:25.399Z,14.81
2023-05-07T06:04:13.963Z,13.80
2023-05-07T06:07:00.778Z,13.85
2023-05-07T06:09:48.944Z,13.72
2023-05-07T06:12:36.334Z,12.83
2023-05-07T06:15:23.666Z,12.93
2023-05-07T06:18:11.232Z,13.54
2023-05-07T06:20:58.163Z,14.72
2023-05-07T06:23:48.451Z,14.24
2023-05-07T06:26:36.601Z,15.02
2023-05-07T06:29:23.957Z,14.31
2023-05-07T06:32:11.231Z,14.12
2023-05-07T06:34:59.900Z,13.99
2023-05-07T06:37:47.902Z,13.97
2023-05-07T06:40:40.003Z,14.20
2023-05-07T06:43:28.676Z,14.57
2023-05-07T06:46:32.639Z,14.73
2023-05-07T06:49:19.630Z,14.35
2023-05-07T06:52:09.512Z,14.30
2023-05-07T06:54:56.328Z,14.04
2023-05-07T06:57:45.153Z,14.20
2023-05-07T07:00:33.304Z,14.22
2023-05-07T07:03:20.019Z,13.83
2023-05-07T07:06:07.386Z,13.93
2023-05-07T07:08:54.768Z,14.04
2023-05-07T07:11:41.530Z,14.01
2023-05-07T07:14:29.001Z,14.12
2023-05-07T07:17:17.107Z,14.12
2023-05-07T07:20:03.986Z,14.21
2023-05-07T07:22:50.736Z,14.52
2023-05-07T07:25:37.672Z,14.13
2023-05-07T07:28:25.077Z,14.35
2023-05-07T07:31:12.118Z,14.14
2023-05-07T07:34:00.711Z,14.63
2023-05-07T07:36:47.681Z,14.88
2023-05-07T07:39:38.889Z,14.84
2023-05-07T07:42:27.718Z,14.97
2023-05-07T07:45:14.582Z,14.91
2023-05-07T07:48:05.826Z,14.40
2023-05-07T07:50:57.768Z,14.65
2023-05-07T07:53:44.636Z,14.82
2023-05-07T07:56:31.498Z,14.67
2023-05-07T07:59:20.052Z,14.47
2023-05-07T08:02:08.879Z,14.87
2023-05-07T08:04:56.669Z,14.42
2023-05-07T08:07:44.722Z,14.61
2023-05-07T08:10:35.885Z,14.64
2023-05-07T08:13:28.644Z,14.91
2023-05-07T08:16:16.375Z,15.15
2023-05-07T08:19:05.594Z,15.55
2023-05-07T08:21:52.772Z,15.59
2023-05-07T08:24:42.236Z,15.20
2023-05-07T08:27:29.523Z,14.99
2023-05-07T08:30:17.134Z,15.09
2023-05-07T08:33:05.254Z,15.67
2023-05-07T08:35:51.904Z,15.35
2023-05-07T08:38:38.727Z,16.01
2023-05-07T08:41:27.094Z,16.53
2023-05-07T08:44:14.952Z,16.30
2023-05-07T08:47:04.222Z,16.30
2023-05-07T08:49:52.195Z,16.35
2023-05-07T08:52:41.467Z,16.67
2023-05-07T08:55:31.070Z,17.09
2023-05-07T08:58:19.379Z,17.76
2023-05-07T09:01:09.654Z,17.19
2023-05-07T09:03:57.351Z,17.33
2023-05-07T09:06:45.452Z,17.53
2023-05-07T09:09:35.687Z,17.83
2023-05-07T09:12:24.205Z,17.31
2023-05-07T09:15:13.561Z,17.72
2023-05-07T09:18:03.106Z,18.14
2023-05-07T09:20:52.069Z,18.13
2023-05-07T09:23:41.182Z,17.69
2023-05-07T09:26:29.289Z,17.68
2023-05-07T09:29:18.853Z,17.51
2023-05-07T09:32:08.253Z,17.38
2023-05-07T09:34:55.381Z,17.84
2023-05-07T09:37:44.598Z,18.42
2023-05-07T09:40:33.073Z,18.80
2023-05-07T09:43:25.032Z,18.29
2023-05-07T09:46:18.170Z,18.23
2023-05-07T09:49:20.393Z,16.96
2023-05-07T09:52:10.179Z,16.66
2023-05-07T09:55:01.691Z,16.65
2023-05-07T09:57:53.385Z,16.91
2023-05-07T10:00:43.509Z,17.96
2023-05-07T10:03:35.941Z,17.69
2023-05-07T10:06:27.641Z,18.08
2023-05-07T10:09:16.367Z,17.29
2023-05-07T10:12:03.699Z,17.01
2023-05-07T10:14:52.518Z,16.33
2023-05-07T10:17:40.727Z,17.04
2023-05-07T10:20:29.311Z,18.01
2023-05-07T10:23:25.499Z,17.73
2023-05-07T10:26:17.481Z,18.19
2023-05-07T10:29:09.850Z,17.65
2023-05-07T10:32:02.012Z,17.20
2023-05-07T10:34:53.088Z,16.92
2023-05-07T10:37:40.407Z,16.80
2023-05-07T10:40:28.510Z,16.47
2023-05-07T10:43:16.012Z,16.27
2023-05-07T10:46:17.026Z,17.09
2023-05-07T10:49:13.553Z,17.76
2023-05-07T10:52:17.079Z,17.40
2023-05-07T10:55:26.468Z,17.13
2023-05-07T10:58:32.832Z,16.85
2023-05-07T11:01:55.557Z,16.96
2023-05-07T11:05:23.115Z,17.22
2023-05-07T11:08:57.366Z,16.95
2023-05-07T11:11:52.668Z,17.31
2023-05-07T11:15:05.240Z,18.21
2023-05-07T11:17:56.355Z,17.69
2023-05-07T11:20:58.860Z,17.76
2023-05-07T11:24:06.933Z,17.85
2023-05-07T11:27:25.695Z,17.40
2023-05-07T11:30:20.687Z,17.84
2023-05-07T11:33:08.031Z,18.40
2023-05-07T11:35:55.964Z,18.58
2023-05-07T11:38:46.834Z,18.78
2023-05-07T11:41:38.001Z,18.27
2023-05-07T11:44:25.079Z,17.84
2023-05-07T11:47:13.703Z,17.91
2023-05-07T11:50:05.335Z,18.00
2023-05-07T11:52:54.175Z,17.68
2023-05-07T11:55:40.852Z,17.71
2023-05-07T11:58:27.654Z,17.61
2023-05-07T12:01:16.148Z,17.69
2023-05-07T12:04:05.658Z,17.41
2023-05-07T12:06:57.077Z,17.29
2023-05-07T12:09:44.624Z,17.80
2023-05-07T12:12:31.044Z,18.17
2023-05-07T12:15:18.438Z,18.08
2023-05-07T12:18:05.736Z,18.32
2023-05-07T12:20:53.818Z,18.34
2023-05-07T12:23:40.714Z,18.12
2023-05-07T12:26:27.682Z,18.04
2023-05-07T12:29:14.270Z,18.29
2023-05-07T12:32:01.358Z,18.22
2023-05-07T12:34:48.858Z,18.45
2023-05-07T12:37:38.060Z,18.36
2023-05-07T12:40:24.660Z,18.49
2023-05-07T12:43:18.109Z,18.18
2023-05-07T12:46:06.945Z,17.93
2023-05-07T12:48:54.801Z,18.05
2023-05-07T12:51:41.962Z,18.12
2023-05-07T12:54:34.452Z,18.57
2023-05-07T12:57:22.709Z,18.30
2023-05-07T13:00:10.893Z,17.82
2023-05-07T13:02:57.452Z,17.86
2023-05-07T13:05:44.130Z,17.42
2023-05-07T13:08:32.925Z,17.33
2023-05-07T13:11:21.744Z,17.80
2023-05-07T13:14:09.250Z,18.08
2023-05-07T13:16:55.805Z,17.37
2023-05-07T13:19:42.432Z,18.06
2023-05-07T13:22:29.278Z,18.45
2023-05-07T13:25:16.502Z,18.51
2023-05-07T13:28:10.979Z,18.17
2023-05-07T13:30:58.404Z,18.25
2023-05-07T13:33:45.179Z,17.86
2023-05-07T13:36:34.123Z,18.19
2023-05-07T13:39:21.164Z,18.88
2023-05-07T13:42:07.716Z,19.17
2023-05-07T13:44:55.919Z,19.33
2023-05-07T13:47:42.792Z,19.27
2023-05-07T13:50:31.132Z,19.39
2023-05-07T13:53:19.304Z,19.70
2023-05-07T13:56:06.757Z,19.73
2023-05-07T13:59:00.193Z,19.77
2023-05-07T14:01:49.351Z,19.28
2023-05-07T14:04:36.369Z,19.32
2023-05-07T14:07:23.107Z,19.68
2023-05-07T14:10:10.898Z,19.03
2023-05-07T14:12:57.851Z,18.90
2023-05-07T14:15:47.385Z,18.79
2023-05-07T14:18:38.098Z,19.14
2023-05-07T14:21:24.885Z,19.18
2023-05-07T14:24:11.914Z,19.44
2023-05-07T14:26:58.622Z,19.69
2023-05-07T14:29:46.573Z,19.53
2023-05-07T14:32:34.617Z,19.47
2023-05-07T14:35:22.584Z,19.13
2023-05-07T14:38:09.374Z,18.67
2023-05-07T14:40:57.301Z,18.83
2023-05-07T14:43:43.811Z,18.87
2023-05-07T14:46:30.609Z,18.82
2023-05-07T14:49:18.545Z,19.16
2023-05-07T14:52:07.306Z,18.95
2023-05-07T14:54:54.119Z,19.11
2023-05-07T14:57:41.477Z,18.93
2023-05-07T15:00:28.293Z,19.36
2023-05-07T15:03:15.157Z,19.38
2023-05-07T15:06:04.129Z,19.55
2023-05-07T15:08:52.301Z,19.42
2023-05-07T15:11:39.018Z,19.21
2023-05-07T15:14:27.574Z,19.77
2023-05-07T15:17:15.995Z,19.78
2023-05-07T15:20:03.063Z,19.61
2023-05-07T15:22:49.932Z,19.74
2023-05-07T15:25:38.375Z,20.04
2023-05-07T15:28:25.583Z,19.98
2023-05-07T15:31:15.182Z,19.24
2023-05-07T15:34:02.260Z,18.90
2023-05-07T15:36:49.025Z,18.89
2023-05-07T15:39:36.609Z,18.78
2023-05-07T15:42:25.232Z,18.39
2023-05-07T15:45:12.434Z,18.09
2023-05-07T15:47:59.690Z,18.23
2023-05-07T15:50:46.764Z,18.46
2023-05-07T15:53:34.866Z,18.43
2023-05-07T15:56:21.745Z,18.59
2023-05-07T15:59:10.278Z,18.57
2023-05-07T16:01:57.328Z,18.38
2023-05-07T16:04:44.215Z,18.44
2023-05-07T16:07:31.146Z,17.88
2023-05-07T16:10:18.529Z,17.91
2023-05-07T16:13:05.299Z,17.85
2023-05-07T16:15:57.648Z,17.94
2023-05-07T16:18:44.357Z,17.79
2023-05-07T16:21:31.554Z,17.57
2023-05-07T16:24:18.286Z,17.60
2023-05-07T16:27:06.647Z,17.53
2023-05-07T16:29:53.222Z,17.30
2023-05-07T16:32:41.316Z,17.64
2023-05-07T16:35:27.922Z,17.52
2023-05-07T16:38:14.891Z,17.64
2023-05-07T16:41:01.799Z,17.61
2023-05-07T16:43:48.501Z,17.53
2023-05-07T16:46:35.530Z,17.35
2023-05-07T16:49:23.328Z,16.98
2023-05-07T16:52:10.082Z,16.94
2023-05-07T16:55:00.834Z,16.88
2023-05-07T16:57:47.389Z,16.85
2023-05-07T17:00:46.154Z,17.02
2023-05-07T17:03:36.755Z,17.09
2023-05-07T17:06:24.783Z,16.75
2023-05-07T17:09:12.182Z,16.81
2023-05-07T17:11:58.881Z,16.79
2023-05-07T17:14:45.784Z,16.45
2023-05-07T17:17:32.733Z,16.35
2023-05-07T17:20:19.627Z,15.95
2023-05-07T17:23:07.625Z,16.18
2023-05-07T17:25:54.247Z,15.75
2023-05-07T17:28:40.897Z,15.86
2023-05-07T17:31:27.718Z,15.81
2023-05-07T17:34:15.579Z,15.79
2023-05-07T17:37:01.978Z,15.56
2023-05-07T17:39:50.123Z,15.68
2023-05-07T17:42:37.014Z,15.63
2023-05-07T17:45:24.294Z,15.42
2023-05-07T17:48:11.107Z,15.46
2023-05-07T17:51:02.297Z,15.44
2023-05-07T17:53:50.290Z,15.36
2023-05-07T17:56:38.902Z,15.16
2023-05-07T17:59:25.290Z,15.03
2023-05-07T18:02:12.024Z,15.07
2023-05-07T18:04:59.839Z,15.23
2023-05-07T18:07:46.501Z,15.35
2023-05-07T18:10:33.301Z,14.96
2023-05-07T18:13:21.878Z,14.88
2023-05-07T18:16:08.959Z,14.64
2023-05-07T18:18:56.352Z,14.52
2023-05-07T18:21:43.196Z,14.34
2023-05-07T18:24:30.021Z,14.26
2023-05-07T18:27:16.911Z,14.13
2023-05-07T18:30:05.459Z,14.14
2023-05-07T18:32:52.282Z,14.01
2023-05-07T18:35:38.959Z,13.56
2023-05-07T18:38:25.818Z,13.92
2023-05-07T18:41:12.568Z,13.90
2023-05-07T18:43:59.344Z,13.68
2023-05-07T18:46:48.777Z,13.66
2023-05-07T18:49:35.660Z,13.48
2023-05-07T18:52:22.434Z,13.40
2023-05-07T18:55:10.791Z,13.47
2023-05-07T18:57:57.329Z,13.31
2023-05-07T19:00:44.050Z,13.09
2023-05-07T19:03:32.286Z,13.11
2023-05-07T19:06:21.585Z,13.08
2023-05-07T19:09:09.180Z,12.94
2023-05-07T19:11:57.448Z,12.79
2023-05-07T19:14:45.515Z,12.85
2023-05-07T19:17:32.365Z,12.72
2023-05-07T19:20:20.306Z,12.68
2023-05-07T19:23:09.444Z,12.52
2023-05-07T19:25:56.359Z,12.41
2023-05-07T19:28:45.866Z,12.39
2023-05-07T19:31:35.095Z,12.15
2023-05-07T19:34:21.907Z,12.10
2023-05-07T19:37:10.215Z,12.00
2023-05-07T19:39:56.920Z,11.80
2023-05-07T19:42:43.680Z,11.81
2023-05-07T19:45:31.665Z,11.85
2023-05-07T19:48:18.175Z,11.66
2023-05-07T19:51:05.025Z,11.59
2023-05-07T19:53:53.156Z,11.57
2023-05-07T19:56:40.071Z,11.52
2023-05-07T19:59:27.345Z,11.54
2023-05-07T20:02:15.408Z,11.45
2023-05-07T20:05:02.202Z,11.33
2023-05-07T20:07:49.019Z,11.33
2023-05-07T20:10:37.367Z,11.29
2023-05-07T20:13:24.211Z,11.28
2023-05-07T20:16:10.867Z,11.19
2023-05-07T20:18:58.548Z,11.26
2023-05-07T20:21:45.550Z,11.21
2023-05-07T20:24:32.209Z,11.14
2023-05-07T20:27:24.821Z,11.04
2023-05-07T20:30:12.410Z,10.77
2023-05-07T20:32:59.266Z,10.92
2023-05-07T20:35:45.910Z,10.83
2023-05-07T20:38:34.979Z,10.83
2023-05-07T20:41:24.769Z,10.63
2023-05-07T20:44:12.954Z,10.57
2023-05-07T20:46:59.448Z,10.50
2023-05-07T20:49:50.808Z,10.35
2023-05-07T20:52:37.693Z,10.44
2023-05-07T20:55:24.520Z,10.44
2023-05-07T20:58:11.744Z,10.44
2023-05-07T21:00:59.926Z,10.36
2023-05-07T21:03:46.457Z,10.47
2023-05-07T21:06:33.246Z,10.35
2023-05-07T21:09:21.357Z,10.41
2023-05-07T21:12:08.121Z,10.36
2023-05-07T21:14:55.319Z,10.43
2023-05-07T21:17:43.519Z,10.51
2023-05-07T21:20:30.625Z,10.46
2023-05-07T21:23:16.952Z,10.36
2023-05-07T21:26:03.825Z,10.28
2023-05-07T21:28:50.778Z,10.16
2023-05-07T21:31:37.590Z,10.05
2023-05-07T21:34:25.806Z,9.89
2023-05-07T21:37:12.569Z,9.92
2023-05-07T21:39:59.377Z,9.90
2023-05-07T21:42:46.538Z,9.80
2023-05-07T21:45:33.662Z,9.84
2023-05-07T21:48:22.148Z,9.68
2023-05-07T21:51:10.002Z,9.76
2023-05-07T21:53:59.635Z,9.68
2023-05-07T21:56:48.731Z,9.68
2023-05-07T21:59:37.535Z,9.55
2023-05-07T22:02:24.347Z,9.44
2023-05-07T22:05:11.209Z,9.39
2023-05-07T22:07:59.053Z,9.32
2023-05-07T22:10:46.326Z,9.24
2023-05-07T22:13:32.840Z,9.24
2023-05-07T22:16:19.647Z,9.22
2023-05-07T22:19:06.507Z,9.17
2023-05-07T22:21:53.163Z,9.08
2023-05-07T22:24:41.348Z,8.95
2023-05-07T22:27:28.136Z,8.96
2023-05-07T22:30:15.201Z,8.89
2023-05-07T22:33:01.616Z,8.96
2023-05-07T22:35:48.492Z,8.99
2023-05-07T22:38:35.348Z,9.01
2023-05-07T22:41:23.993Z,8.94
2023-05-07T22:44:10.574Z,8.90
2023-05-07T22:46:57.361Z,8.84
2023-05-07T22:49:44.114Z,8.78
2023-05-07T22:52:30.928Z,8.79
2023-05-07T22:55:18.114Z,8.81
2023-05-07T22:58:05.890Z,8.85
2023-05-07T23:00:52.877Z,8.88
2023-05-07T23:03:39.687Z,8.87
2023-05-07T23:06:27.149Z,8.89
2023-05-07T23:09:13.972Z,8.72
2023-05-07T23:12:00.520Z,8.73
2023-05-07T23:14:48.899Z,8.92
2023-05-07T23:17:35.561Z,8.72
2023-05-07T23:20:22.589Z,8.75
2023-05-07T23:23:09.386Z,8.79
2023-05-07T23:25:55.743Z,8.67
2023-05-07T23:28:42.909Z,8.68
2023-05-07T23:31:31.098Z,8.51
2023-05-07T23:34:23.935Z,8.48
2023-05-07T23:37:11.170Z,8.37
2023-05-07T23:39:57.909Z,8.44
2023-05-07T23:42:44.746Z,8.40
2023-05-07T23:45:31.489Z,8.21
2023-05-07T23:48:19.587Z,8.27
2023-05-07T23:51:06.512Z,8.22
2023-05-07T23:53:53.277Z,8.14
2023-05-07T23:56:39.936Z,8.06
2023-05-07T23:59:26.791Z,8.05
